sensor_id;sensor_type;location;lat;lon;timestamp;pressure;altitude;pressure_sealevel;temperature;humidity
13954;BME280;7049;49.444;8.522;2022-09-09T00:02:38;76761.53;;;-3.47;72.93
13954;BME280;7049;49.444;8.522;2022-09-09T00:07:43;76776.19;;;-3.47;73.02
13954;BME280;7049;49.444;8.522;2022-09-09T00:12:55;76784.53;;;-3.47;72.87
13954;BME280;7049;49.444;8.522;2022-09-09T00:18:05;76776.19;;;-3.47;72.95
13954;BME280;7049;49.444;8.522;2022-09-09T00:23:12;76784.53;;;-3.47;72.62
13954;BME280;7049;49.444;8.522;2022-09-09T00:28:18;76786.63;;;-3.47;73.07
13954;BME280;7049;49.444;8.522;2022-09-09T00:33:23;76784.53;;;-3.47;73.14
13954;BME280;7049;49.444;8.522;2022-09-09T00:38:29;76780.38;;;-3.47;73.52
13954;BME280;7049;49.444;8.522;2022-09-09T00:43:37;76780.38;;;-3.47;74.07
13954;BME280;7049;49.444;8.522;2022-09-09T00:48:47;76780.38;;;-3.47;74.44
13954;BME280;7049;49.444;8.522;2022-09-09T00:54:08;76790.81;;;-3.47;74.91
13954;BME280;7049;49.444;8.522;2022-09-09T00:59:25;76790.81;;;-3.47;75.45
13954;BME280;7049;49.444;8.522;2022-09-09T01:04:33;76790.81;;;-3.47;75.86
13954;BME280;7049;49.444;8.522;2022-09-09T01:09:42;76784.53;;;-3.47;75.99
13954;BME280;7049;49.444;8.522;2022-09-09T01:14:50;76792.91;;;-3.47;75.78
13954;BME280;7049;49.444;8.522;2022-09-09T01:20:06;76795.00;;;-3.47;76.14
13954;BME280;7049;49.444;8.522;2022-09-09T01:25:29;76803.38;;;-3.47;76.55
13954;BME280;7049;49.444;8.522;2022-09-09T01:30:35;76805.47;;;-3.47;76.64
13954;BME280;7049;49.444;8.522;2022-09-09T01:35:41;76809.66;;;-3.47;76.74
13954;BME280;7049;49.444;8.522;2022-09-09T01:40:44;76822.19;;;-3.47;77.30
13954;BME280;7049;49.444;8.522;2022-09-09T01:45:49;76822.19;;;-3.47;77.62
13954;BME280;7049;49.444;8.522;2022-09-09T01:50:52;76824.28;;;-3.47;78.16
13954;BME280;7049;49.444;8.522;2022-09-09T01:56:01;76826.38;;;-3.47;78.78
13954;BME280;7049;49.444;8.522;2022-09-09T02:01:14;76811.75;;;-3.47;78.71
13954;BME280;7049;49.444;8.522;2022-09-09T02:06:25;76818.00;;;-3.47;78.60
13954;BME280;7049;49.444;8.522;2022-09-09T02:11:29;76826.38;;;-3.47;78.46
13954;BME280;7049;49.444;8.522;2022-09-09T02:16:36;76826.38;;;-3.47;78.58
13954;BME280;7049;49.444;8.522;2022-09-09T02:21:41;76818.00;;;-3.47;78.77
13954;BME280;7049;49.444;8.522;2022-09-09T02:26:46;76826.38;;;-3.47;78.96
13954;BME280;7049;49.444;8.522;2022-09-09T02:31:51;76830.56;;;-3.47;79.22
13954;BME280;7049;49.444;8.522;2022-09-09T02:36:57;76822.19;;;-3.47;78.07
13954;BME280;7049;49.444;8.522;2022-09-09T02:41:58;76815.94;;;-3.47;77.82
13954;BME280;7049;49.444;8.522;2022-09-09T02:47:23;76824.28;;;-3.47;77.13
13954;BME280;7049;49.444;8.522;2022-09-09T02:52:32;76813.84;;;-3.47;76.68
13954;BME280;7049;49.444;8.522;2022-09-09T02:57:37;76820.09;;;-3.47;76.14
13954;BME280;7049;49.444;8.522;2022-09-09T03:02:42;76803.38;;;-3.47;75.63
13954;BME280;7049;49.444;8.522;2022-09-09T03:07:43;76801.28;;;-3.47;75.65
13954;BME280;7049;49.444;8.522;2022-09-09T03:12:45;76805.47;;;-3.47;75.65
13954;BME280;7049;49.444;8.522;2022-09-09T03:17:47;76822.19;;;-3.47;75.98
13954;BME280;7049;49.444;8.522;2022-09-09T03:22:49;76826.38;;;-3.47;75.83
13954;BME280;7049;49.444;8.522;2022-09-09T03:27:51;76832.66;;;-3.47;75.86
13954;BME280;7049;49.444;8.522;2022-09-09T03:32:55;76834.75;;;-3.47;75.68
13954;BME280;7049;49.444;8.522;2022-09-09T03:37:57;76843.13;;;-3.47;75.65
13954;BME280;7049;49.444;8.522;2022-09-09T03:43:00;76843.13;;;-3.47;75.30
13954;BME280;7049;49.444;8.522;2022-09-09T03:48:03;76847.31;;;-3.47;74.62
13954;BME280;7049;49.444;8.522;2022-09-09T03:53:05;76855.66;;;-3.47;75.07
13954;BME280;7049;49.444;8.522;2022-09-09T03:58:06;76849.41;;;-3.47;75.15
13954;BME280;7049;49.444;8.522;2022-09-09T04:03:09;76864.03;;;-3.47;75.18
13954;BME280;7049;49.444;8.522;2022-09-09T04:08:11;76851.47;;;-3.47;75.14
13954;BME280;7049;49.444;8.522;2022-09-09T04:13:12;76864.03;;;-3.47;75.38
13954;BME280;7049;49.444;8.522;2022-09-09T04:18:16;76853.56;;;-3.47;75.32
13954;BME280;7049;49.444;8.522;2022-09-09T04:23:18;76853.56;;;-3.47;75.26
13954;BME280;7049;49.444;8.522;2022-09-09T04:28:24;76861.94;;;-3.47;75.50
13954;BME280;7049;49.444;8.522;2022-09-09T04:33:27;76866.13;;;-3.47;75.43
13954;BME280;7049;49.444;8.522;2022-09-09T04:38:30;76864.03;;;-3.47;75.42
13954;BME280;7049;49.444;8.522;2022-09-09T04:43:31;76872.41;;;-3.47;75.05
13954;BME280;7049;49.444;8.522;2022-09-09T04:48:34;76878.69;;;-3.47;75.46
13954;BME280;7049;49.444;8.522;2022-09-09T04:53:36;76878.69;;;-3.47;75.20
13954;BME280;7049;49.444;8.522;2022-09-09T04:58:39;76878.69;;;-3.47;75.53
13954;BME280;7049;49.444;8.522;2022-09-09T05:03:44;76884.97;;;-3.47;75.75
13954;BME280;7049;49.444;8.522;2022-09-09T05:08:46;76884.97;;;-3.47;75.77
13954;BME280;7049;49.444;8.522;2022-09-09T05:13:48;76895.41;;;-3.47;76.15
13954;BME280;7049;49.444;8.522;2022-09-09T05:18:51;76897.50;;;-3.47;75.66
13954;BME280;7049;49.444;8.522;2022-09-09T05:23:53;76897.50;;;-3.47;75.76
13954;BME280;7049;49.444;8.522;2022-09-09T05:28:55;76897.50;;;-3.47;76.17
13954;BME280;7049;49.444;8.522;2022-09-09T05:33:58;76907.97;;;-3.47;76.51
13954;BME280;7049;49.444;8.522;2022-09-09T05:39:00;76889.13;;;-3.47;75.91
13954;BME280;7049;49.444;8.522;2022-09-09T05:44:01;76893.31;;;-3.47;76.16
13954;BME280;7049;49.444;8.522;2022-09-09T05:49:05;76891.22;;;-3.47;76.25
13954;BME280;7049;49.444;8.522;2022-09-09T05:54:06;76884.97;;;-3.47;75.90
13954;BME280;7049;49.444;8.522;2022-09-09T05:59:08;76893.31;;;-3.47;75.18
13954;BME280;7049;49.444;8.522;2022-09-09T06:04:11;76895.41;;;-3.47;75.23
13954;BME280;7049;49.444;8.522;2022-09-09T06:09:12;76899.59;;;-3.47;75.20
13954;BME280;7049;49.444;8.522;2022-09-09T06:14:15;76893.31;;;-3.47;75.32
13954;BME280;7049;49.444;8.522;2022-09-09T06:19:19;76889.13;;;-3.47;75.90
13954;BME280;7049;49.444;8.522;2022-09-09T06:24:21;76872.41;;;-3.47;75.46
13954;BME280;7049;49.444;8.522;2022-09-09T06:29:22;76855.66;;;-3.47;74.05
13954;BME280;7049;49.444;8.522;2022-09-09T06:34:25;76861.94;;;-3.47;74.92
13954;BME280;7049;49.444;8.522;2022-09-09T06:39:26;76855.66;;;-3.47;74.99
13954;BME280;7049;49.444;8.522;2022-09-09T06:44:28;76855.66;;;-3.47;74.55
13954;BME280;7049;49.444;8.522;2022-09-09T06:49:35;76845.22;;;-3.47;74.15
13954;BME280;7049;49.444;8.522;2022-09-09T06:54:36;76838.94;;;-3.47;73.24
13954;BME280;7049;49.444;8.522;2022-09-09T06:59:38;76838.94;;;-3.47;73.68
13954;BME280;7049;49.444;8.522;2022-09-09T07:04:40;76830.56;;;-3.47;72.65
13954;BME280;7049;49.444;8.522;2022-09-09T07:09:42;76805.47;;;-3.47;72.30
13954;BME280;7049;49.444;8.522;2022-09-09T07:14:45;76780.38;;;-3.47;71.02
13954;BME280;7049;49.444;8.522;2022-09-09T07:19:47;76767.81;;;-3.47;70.71
13954;BME280;7049;49.444;8.522;2022-09-09T07:24:49;76751.06;;;-3.47;69.79
13954;BME280;7049;49.444;8.522;2022-09-09T07:29:50;76734.34;;;-3.47;69.80
13954;BME280;7049;49.444;8.522;2022-09-09T07:34:55;76725.97;;;-3.47;68.51
13954;BME280;7049;49.444;8.522;2022-09-09T07:39:58;76725.97;;;-3.47;68.38
13954;BME280;7049;49.444;8.522;2022-09-09T07:44:59;76725.97;;;-3.47;67.68
13954;BME280;7049;49.444;8.522;2022-09-09T07:50:02;76725.97;;;-3.47;67.60
13954;BME280;7049;49.444;8.522;2022-09-09T07:55:05;76736.44;;;-3.47;68.44
13954;BME280;7049;49.444;8.522;2022-09-09T08:00:07;76721.78;;;-3.47;69.54
13954;BME280;7049;49.444;8.522;2022-09-09T08:05:11;76715.50;;;-3.47;68.41
13954;BME280;7049;49.444;8.522;2022-09-09T08:10:15;76698.78;;;-3.47;68.37
13954;BME280;7049;49.444;8.522;2022-09-09T08:15:16;76684.13;;;-3.47;68.05
13954;BME280;7049;49.444;8.522;2022-09-09T08:20:19;76661.13;;;-3.47;66.37
13954;BME280;7049;49.444;8.522;2022-09-09T08:25:23;76669.50;;;-3.47;65.99
13954;BME280;7049;49.444;8.522;2022-09-09T08:30:24;76671.59;;;-3.47;69.24
13954;BME280;7049;49.444;8.522;2022-09-09T08:35:28;76679.97;;;-3.47;70.99
13954;BME280;7049;49.444;8.522;2022-09-09T08:40:36;76692.50;;;-3.47;71.56
13954;BME280;7049;49.444;8.522;2022-09-09T08:45:50;76692.50;;;-3.47;71.95
13954;BME280;7049;49.444;8.522;2022-09-09T08:50:57;76688.31;;;-3.47;71.93
13954;BME280;7049;49.444;8.522;2022-09-09T08:56:06;76679.97;;;-3.47;71.25
13954;BME280;7049;49.444;8.522;2022-09-09T09:01:23;76669.50;;;-3.47;69.96
13954;BME280;7049;49.444;8.522;2022-09-09T09:06:38;76646.50;;;-3.47;69.07
13954;BME280;7049;49.444;8.522;2022-09-09T09:11:48;76598.38;;;-3.47;66.96
13954;BME280;7049;49.444;8.522;2022-09-09T09:16:53;76529.34;;;-3.47;65.26
13954;BME280;7049;49.444;8.522;2022-09-09T09:22:03;76470.78;;;-3.47;61.39
13954;BME280;7049;49.444;8.522;2022-09-09T09:27:12;76428.94;;;-3.47;59.38
13954;BME280;7049;49.444;8.522;2022-09-09T09:32:18;76433.13;;;-3.47;58.45
13954;BME280;7049;49.444;8.522;2022-09-09T09:37:26;76433.13;;;-3.47;58.25
13954;BME280;7049;49.444;8.522;2022-09-09T09:42:29;76449.88;;;-3.47;58.35
13954;BME280;7049;49.444;8.522;2022-09-09T09:48:00;76502.16;;;-3.47;63.43
13954;BME280;7049;49.444;8.522;2022-09-09T09:53:23;76581.66;;;-3.47;68.34
13954;BME280;7049;49.444;8.522;2022-09-09T09:58:30;76659.03;;;-3.47;75.42
13954;BME280;7049;49.444;8.522;2022-09-09T10:03:35;76705.06;;;-3.47;71.75
13954;BME280;7049;49.444;8.522;2022-09-09T10:08:46;76715.50;;;-3.47;75.31
13954;BME280;7049;49.444;8.522;2022-09-09T10:13:53;76692.50;;;-3.47;77.37
13954;BME280;7049;49.444;8.522;2022-09-09T10:19:01;76608.84;;;-3.47;81.98
13954;BME280;7049;49.444;8.522;2022-09-09T10:24:31;76548.19;;;-3.47;78.99
13954;BME280;7049;49.444;8.522;2022-09-09T10:30:04;76487.53;;;-3.47;79.42
13954;BME280;7049;49.444;8.522;2022-09-09T10:35:12;76435.22;;;-3.47;75.10
13954;BME280;7049;49.444;8.522;2022-09-09T10:40:26;76443.59;;;-3.47;68.48
13954;BME280;7049;49.444;8.522;2022-09-09T10:45:35;76410.13;;;-3.47;68.87
13954;BME280;7049;49.444;8.522;2022-09-09T10:50:48;76422.69;;;-3.47;67.61
13954;BME280;7049;49.444;8.522;2022-09-09T10:55:56;76395.47;;;-3.47;68.02
13954;BME280;7049;49.444;8.522;2022-09-09T11:01:05;76374.56;;;-3.47;62.02
13954;BME280;7049;49.444;8.522;2022-09-09T11:06:14;76341.09;;;-3.47;63.40
13954;BME280;7049;49.444;8.522;2022-09-09T11:11:21;76320.19;;;-3.47;59.36
13954;BME280;7049;49.444;8.522;2022-09-09T11:16:28;76357.84;;;-3.47;59.41
13954;BME280;7049;49.444;8.522;2022-09-09T11:21:33;76332.75;;;-3.47;57.79
13954;BME280;7049;49.444;8.522;2022-09-09T11:26:39;76288.81;;;-3.47;58.57
13954;BME280;7049;49.444;8.522;2022-09-09T11:31:54;76232.34;;;-3.47;54.55
13954;BME280;7049;49.444;8.522;2022-09-09T11:37:09;76234.44;;;-3.47;52.04
13954;BME280;7049;49.444;8.522;2022-09-09T11:42:19;76226.06;;;-3.47;50.40
13954;BME280;7049;49.444;8.522;2022-09-09T11:47:24;76182.16;;;-3.47;53.45
13954;BME280;7049;49.444;8.522;2022-09-09T11:52:36;76182.16;;;-3.47;50.37
13954;BME280;7049;49.444;8.522;2022-09-09T11:57:40;76190.50;;;-3.47;48.04
13954;BME280;7049;49.444;8.522;2022-09-09T12:02:48;76167.50;;;-3.47;51.68
13954;BME280;7049;49.444;8.522;2022-09-09T12:07:54;76146.59;;;-3.47;49.70
13954;BME280;7049;49.444;8.522;2022-09-09T12:13:16;76140.31;;;-3.47;49.74
13954;BME280;7049;49.444;8.522;2022-09-09T12:18:22;76175.88;;;-3.47;49.75
13954;BME280;7049;49.444;8.522;2022-09-09T12:23:32;76221.88;;;-3.47;53.26
13954;BME280;7049;49.444;8.522;2022-09-09T12:28:49;76265.81;;;-3.47;55.68
13954;BME280;7049;49.444;8.522;2022-09-09T12:33:53;76288.81;;;-3.47;57.57
13954;BME280;7049;49.444;8.522;2022-09-09T12:38:56;76286.72;;;-3.47;54.21
13954;BME280;7049;49.444;8.522;2022-09-09T12:44:06;76257.44;;;-3.47;55.52
13954;BME280;7049;49.444;8.522;2022-09-09T12:49:26;76211.44;;;-3.47;58.15
13954;BME280;7049;49.444;8.522;2022-09-09T12:54:28;76177.97;;;-3.47;56.26
13954;BME280;7049;49.444;8.522;2022-09-09T12:59:37;76175.88;;;-3.47;52.16
13954;BME280;7049;49.444;8.522;2022-09-09T13:04:40;76182.16;;;-3.47;49.24
13954;BME280;7049;49.444;8.522;2022-09-09T13:09:42;76209.34;;;-3.47;48.21
13954;BME280;7049;49.444;8.522;2022-09-09T13:14:48;76251.16;;;-3.47;48.79
13954;BME280;7049;49.444;8.522;2022-09-09T13:19:51;76290.91;;;-3.47;51.19
13954;BME280;7049;49.444;8.522;2022-09-09T13:25:01;76336.91;;;-3.47;53.45
13954;BME280;7049;49.444;8.522;2022-09-09T13:30:23;76376.66;;;-3.47;57.82
13954;BME280;7049;49.444;8.522;2022-09-09T13:35:25;76376.66;;;-3.47;59.38
13954;BME280;7049;49.444;8.522;2022-09-09T13:40:27;76318.09;;;-3.47;61.29
13954;BME280;7049;49.444;8.522;2022-09-09T13:45:31;76257.44;;;-3.47;52.70
13954;BME280;7049;49.444;8.522;2022-09-09T13:50:35;76259.53;;;-3.47;48.70
13954;BME280;7049;49.444;8.522;2022-09-09T13:55:36;76270.00;;;-3.47;47.27
13954;BME280;7049;49.444;8.522;2022-09-09T14:00:40;76280.44;;;-3.47;48.58
13954;BME280;7049;49.444;8.522;2022-09-09T14:05:43;76255.34;;;-3.47;47.58
13954;BME280;7049;49.444;8.522;2022-09-09T14:10:45;76247.00;;;-3.47;45.16
13954;BME280;7049;49.444;8.522;2022-09-09T14:15:49;76219.78;;;-3.47;46.20
13954;BME280;7049;49.444;8.522;2022-09-09T14:20:51;76196.78;;;-3.47;45.76
13954;BME280;7049;49.444;8.522;2022-09-09T14:25:52;76171.69;;;-3.47;46.37
13954;BME280;7049;49.444;8.522;2022-09-09T14:30:58;76152.88;;;-3.47;46.31
13954;BME280;7049;49.444;8.522;2022-09-09T14:36:02;76157.06;;;-3.47;46.14
13954;BME280;7049;49.444;8.522;2022-09-09T14:41:04;76175.88;;;-3.47;45.80
13954;BME280;7049;49.444;8.522;2022-09-09T14:46:08;76200.97;;;-3.47;45.38
13954;BME280;7049;49.444;8.522;2022-09-09T14:51:11;76223.97;;;-3.47;46.40
13954;BME280;7049;49.444;8.522;2022-09-09T14:56:15;76261.63;;;-3.47;47.70
13954;BME280;7049;49.444;8.522;2022-09-09T15:01:19;76316.00;;;-3.47;52.05
13954;BME280;7049;49.444;8.522;2022-09-09T15:06:22;76366.19;;;-3.47;55.81
13954;BME280;7049;49.444;8.522;2022-09-09T15:11:26;76449.88;;;-3.47;57.23
13954;BME280;7049;49.444;8.522;2022-09-09T15:16:29;76504.25;;;-3.47;60.31
13954;BME280;7049;49.444;8.522;2022-09-09T15:21:33;76587.91;;;-3.47;62.41
13954;BME280;7049;49.444;8.522;2022-09-09T15:26:36;76654.84;;;-3.47;65.17
13954;BME280;7049;49.444;8.522;2022-09-09T15:31:41;76679.97;;;-3.47;67.19
13954;BME280;7049;49.444;8.522;2022-09-09T15:36:43;76705.06;;;-3.47;68.45
13954;BME280;7049;49.444;8.522;2022-09-09T15:41:47;76707.16;;;-3.47;69.78
13954;BME280;7049;49.444;8.522;2022-09-09T15:46:51;76688.31;;;-3.47;70.52
13954;BME280;7049;49.444;8.522;2022-09-09T15:51:55;76675.78;;;-3.47;69.89
13954;BME280;7049;49.444;8.522;2022-09-09T15:56:59;76679.97;;;-3.47;71.15
13954;BME280;7049;49.444;8.522;2022-09-09T16:02:02;76686.22;;;-3.47;72.15
13954;BME280;7049;49.444;8.522;2022-09-09T16:07:05;76700.88;;;-3.47;69.31
13954;BME280;7049;49.444;8.522;2022-09-09T16:12:07;76692.50;;;-3.47;70.54
13954;BME280;7049;49.444;8.522;2022-09-09T16:17:11;76696.69;;;-3.47;69.05
13954;BME280;7049;49.444;8.522;2022-09-09T16:22:12;76692.50;;;-3.47;68.39
13954;BME280;7049;49.444;8.522;2022-09-09T16:27:15;76696.69;;;-3.47;69.94
13954;BME280;7049;49.444;8.522;2022-09-09T16:32:18;76690.41;;;-3.47;70.83
13954;BME280;7049;49.444;8.522;2022-09-09T16:37:20;76692.50;;;-3.47;71.85
13954;BME280;7049;49.444;8.522;2022-09-09T16:42:21;76700.88;;;-3.47;69.22
13954;BME280;7049;49.444;8.522;2022-09-09T16:47:24;76719.69;;;-3.47;69.73
13954;BME280;7049;49.444;8.522;2022-09-09T16:52:26;76734.34;;;-3.47;71.03
13954;BME280;7049;49.444;8.522;2022-09-09T16:57:27;76730.16;;;-3.47;74.39
13954;BME280;7049;49.444;8.522;2022-09-09T17:02:31;76723.88;;;-3.47;76.82
13954;BME280;7049;49.444;8.522;2022-09-09T17:07:33;76713.44;;;-3.47;78.24
13954;BME280;7049;49.444;8.522;2022-09-09T17:12:34;76711.34;;;-3.47;79.13
13954;BME280;7049;49.444;8.522;2022-09-09T17:17:37;76711.34;;;-3.47;79.57
13954;BME280;7049;49.444;8.522;2022-09-09T17:22:39;76719.69;;;-3.47;78.98
13954;BME280;7049;49.444;8.522;2022-09-09T17:27:40;76730.16;;;-3.47;78.81
13954;BME280;7049;49.444;8.522;2022-09-09T17:32:43;76744.81;;;-3.47;77.82
13954;BME280;7049;49.444;8.522;2022-09-09T17:37:45;76757.34;;;-3.47;78.50
13954;BME280;7049;49.444;8.522;2022-09-09T17:42:46;76751.06;;;-3.47;78.80
13954;BME280;7049;49.444;8.522;2022-09-09T17:47:49;76769.91;;;-3.47;77.80
13954;BME280;7049;49.444;8.522;2022-09-09T17:52:50;76774.09;;;-3.47;77.58
13954;BME280;7049;49.444;8.522;2022-09-09T17:57:52;76782.47;;;-3.47;75.18
13954;BME280;7049;49.444;8.522;2022-09-09T18:02:55;76822.19;;;-3.47;75.47
13954;BME280;7049;49.444;8.522;2022-09-09T18:07:56;76847.31;;;-3.47;77.38
13954;BME280;7049;49.444;8.522;2022-09-09T18:12:57;76847.31;;;-3.47;78.62
13954;BME280;7049;49.444;8.522;2022-09-09T18:18:02;76866.13;;;-3.47;77.65
13954;BME280;7049;49.444;8.522;2022-09-09T18:23:06;76889.13;;;-3.47;73.17
13954;BME280;7049;49.444;8.522;2022-09-09T18:28:07;76939.34;;;-3.47;72.46
13954;BME280;7049;49.444;8.522;2022-09-09T18:33:12;76968.63;;;-3.47;74.02
13954;BME280;7049;49.444;8.522;2022-09-09T18:38:13;76979.09;;;-3.47;73.10
13954;BME280;7049;49.444;8.522;2022-09-09T18:43:16;77002.09;;;-3.47;75.72
13954;BME280;7049;49.444;8.522;2022-09-09T18:48:19;77004.19;;;-3.47;76.32
13954;BME280;7049;49.444;8.522;2022-09-09T18:53:21;77010.47;;;-3.47;76.40
13954;BME280;7049;49.444;8.522;2022-09-09T18:58:22;77008.38;;;-3.47;78.84
13954;BME280;7049;49.444;8.522;2022-09-09T19:03:27;77004.19;;;-3.47;79.63
13954;BME280;7049;49.444;8.522;2022-09-09T19:08:28;77002.09;;;-3.47;80.22
13954;BME280;7049;49.444;8.522;2022-09-09T19:13:30;77004.19;;;-3.47;80.71
13954;BME280;7049;49.444;8.522;2022-09-09T19:18:33;77002.09;;;-3.47;81.20
13954;BME280;7049;49.444;8.522;2022-09-09T19:23:35;77006.28;;;-3.47;82.12
13954;BME280;7049;49.444;8.522;2022-09-09T19:28:37;77010.47;;;-3.47;82.52
13954;BME280;7049;49.444;8.522;2022-09-09T19:33:41;76997.91;;;-3.47;83.22
13954;BME280;7049;49.444;8.522;2022-09-09T19:38:45;76995.84;;;-3.47;83.14
13954;BME280;7049;49.444;8.522;2022-09-09T19:43:46;76997.91;;;-3.47;82.96
13954;BME280;7049;49.444;8.522;2022-09-09T19:48:50;77010.47;;;-3.47;83.08
13954;BME280;7049;49.444;8.522;2022-09-09T19:53:53;77041.84;;;-3.47;83.31
13954;BME280;7049;49.444;8.522;2022-09-09T19:58:56;77046.03;;;-3.47;83.96
13954;BME280;7049;49.444;8.522;2022-09-09T20:04:00;77043.94;;;-3.47;84.14
13954;BME280;7049;49.444;8.522;2022-09-09T20:09:17;77043.94;;;-3.47;84.63
13954;BME280;7049;49.444;8.522;2022-09-09T20:14:20;77035.56;;;-3.47;85.18
13954;BME280;7049;49.444;8.522;2022-09-09T20:19:23;77039.75;;;-3.47;84.77
13954;BME280;7049;49.444;8.522;2022-09-09T20:24:24;77039.75;;;-3.47;85.45
13954;BME280;7049;49.444;8.522;2022-09-09T20:29:26;77043.94;;;-3.47;84.50
13954;BME280;7049;49.444;8.522;2022-09-09T20:34:28;77043.94;;;-3.47;84.93
13954;BME280;7049;49.444;8.522;2022-09-09T20:39:30;77046.03;;;-3.47;84.86
13954;BME280;7049;49.444;8.522;2022-09-09T20:44:31;77048.13;;;-3.47;84.78
13954;BME280;7049;49.444;8.522;2022-09-09T20:49:34;77046.03;;;-3.47;84.53
13954;BME280;7049;49.444;8.522;2022-09-09T20:54:35;77060.69;;;-3.47;84.94
13954;BME280;7049;49.444;8.522;2022-09-09T20:59:38;77071.13;;;-3.47;85.27
13954;BME280;7049;49.444;8.522;2022-09-09T21:04:42;77056.50;;;-3.47;85.63
13954;BME280;7049;49.444;8.522;2022-09-09T21:09:44;77048.13;;;-3.47;86.22
13954;BME280;7049;49.444;8.522;2022-09-09T21:14:45;77056.50;;;-3.47;85.85
13954;BME280;7049;49.444;8.522;2022-09-09T21:19:48;77058.59;;;-3.47;86.19
13954;BME280;7049;49.444;8.522;2022-09-09T21:24:50;77052.31;;;-3.47;87.18
13954;BME280;7049;49.444;8.522;2022-09-09T21:29:52;77050.22;;;-3.47;87.21
13954;BME280;7049;49.444;8.522;2022-09-09T21:34:55;77062.78;;;-3.47;86.63
13954;BME280;7049;49.444;8.522;2022-09-09T21:39:56;77058.59;;;-3.47;87.03
13954;BME280;7049;49.444;8.522;2022-09-09T21:44:58;77060.69;;;-3.47;86.60
13954;BME280;7049;49.444;8.522;2022-09-09T21:50:01;77056.50;;;-3.47;87.09
13954;BME280;7049;49.444;8.522;2022-09-09T21:55:03;77050.22;;;-3.47;86.75
13954;BME280;7049;49.444;8.522;2022-09-09T22:00:06;77048.13;;;-3.47;86.88
13954;BME280;7049;49.444;8.522;2022-09-09T22:05:12;77050.22;;;-3.47;85.84
13954;BME280;7049;49.444;8.522;2022-09-09T22:10:14;77052.31;;;-3.47;86.02
13954;BME280;7049;49.444;8.522;2022-09-09T22:15:19;77056.50;;;-3.47;86.52
13954;BME280;7049;49.444;8.522;2022-09-09T22:20:21;77064.88;;;-3.47;87.46
13954;BME280;7049;49.444;8.522;2022-09-09T22:25:24;77062.78;;;-3.47;87.29
13954;BME280;7049;49.444;8.522;2022-09-09T22:30:25;77073.22;;;-3.47;86.88
13954;BME280;7049;49.444;8.522;2022-09-09T22:35:29;77083.69;;;-3.47;87.85
13954;BME280;7049;49.444;8.522;2022-09-09T22:40:33;77085.78;;;-3.47;88.48
13954;BME280;7049;49.444;8.522;2022-09-09T22:45:48;77085.78;;;-3.47;88.83
13954;BME280;7049;49.444;8.522;2022-09-09T22:50:51;77089.97;;;-3.47;89.49
13954;BME280;7049;49.444;8.522;2022-09-09T22:55:54;77094.16;;;-3.47;89.55
13954;BME280;7049;49.444;8.522;2022-09-09T23:01:08;77096.25;;;-3.47;89.87
13954;BME280;7049;49.444;8.522;2022-09-09T23:06:13;77104.63;;;-3.47;89.55
13954;BME280;7049;49.444;8.522;2022-09-09T23:11:22;77102.53;;;-3.47;89.58
13954;BME280;7049;49.444;8.522;2022-09-09T23:16:25;77106.72;;;-3.47;90.62
13954;BME280;7049;49.444;8.522;2022-09-09T23:21:29;77110.88;;;-3.47;90.56
13954;BME280;7049;49.444;8.522;2022-09-09T23:26:31;77110.88;;;-3.47;90.15
13954;BME280;7049;49.444;8.522;2022-09-09T23:31:35;77117.16;;;-3.47;90.86
13954;BME280;7049;49.444;8.522;2022-09-09T23:36:41;77127.63;;;-3.47;91.67
13954;BME280;7049;49.444;8.522;2022-09-09T23:41:42;77123.44;;;-3.47;91.68
13954;BME280;7049;49.444;8.522;2022-09-09T23:46:46;77119.25;;;-3.47;90.65
13954;BME280;7049;49.444;8.522;2022-09-09T23:51:49;77123.44;;;-3.47;91.00
13954;BME280;7049;49.444;8.522;2022-09-09T23:56:50;77133.91;;;-3.47;90.21
